createdAt,value
2023-01-17T00:00:59.299Z,19.68
2023-01-17T00:01:59.384Z,19.68
2023-01-17T00:02:59.456Z,19.67
2023-01-17T00:03:59.574Z,19.67
2023-01-17T00:04:59.478Z,19.65
2023-01-17T00:05:59.493Z,19.67
2023-01-17T00:06:59.484Z,19.67
2023-01-17T00:07:59.508Z,19.67
2023-01-17T00:08:59.592Z,19.67
2023-01-17T00:09:59.510Z,19.67
2023-01-17T00:10:59.527Z,19.67
2023-01-17T00:11:59.524Z,19.67
2023-01-17T00:12:59.556Z,19.67
2023-01-17T00:13:59.644Z,19.67
2023-01-17T00:14:59.619Z,19.68
2023-01-17T00:15:59.632Z,19.67
2023-01-17T00:16:59.602Z,19.65
2023-01-17T00:18:00.487Z,19.65
2023-01-17T00:18:59.614Z,19.67
2023-01-17T00:19:59.621Z,19.68
2023-01-17T00:20:59.685Z,19.68
2023-01-17T00:21:59.674Z,19.70
2023-01-17T00:22:59.645Z,19.68
2023-01-17T00:23:59.707Z,19.68
2023-01-17T00:24:59.673Z,19.70
2023-01-17T00:25:59.653Z,19.68
2023-01-17T00:26:59.706Z,19.68
2023-01-17T00:27:59.684Z,19.71
2023-01-17T00:28:59.660Z,19.70
2023-01-17T00:29:59.705Z,19.70
2023-01-17T00:30:59.665Z,19.72
2023-01-17T00:31:59.659Z,19.71
2023-01-17T00:32:59.680Z,19.71
2023-01-17T00:33:59.650Z,19.71
2023-01-17T00:34:59.623Z,19.70
2023-01-17T00:35:59.585Z,19.72
2023-01-17T00:36:59.591Z,19.71
2023-01-17T00:37:59.617Z,19.70
2023-01-17T00:38:59.650Z,19.70
2023-01-17T00:39:59.629Z,19.71
2023-01-17T00:40:59.638Z,19.71
2023-01-17T00:41:59.646Z,19.71
2023-01-17T00:42:59.635Z,19.70
2023-01-17T00:43:59.689Z,19.68
2023-01-17T00:44:59.599Z,19.70
2023-01-17T00:45:59.595Z,19.71
2023-01-17T00:46:59.569Z,19.72
2023-01-17T00:47:59.565Z,19.71
2023-01-17T00:48:59.585Z,19.72
2023-01-17T00:49:59.599Z,19.75
2023-01-17T00:50:59.639Z,19.75
2023-01-17T00:51:59.591Z,19.72
2023-01-17T00:52:59.567Z,19.75
2023-01-17T00:53:59.565Z,19.75
2023-01-17T00:54:59.562Z,19.72
2023-01-17T00:55:59.590Z,19.71
2023-01-17T00:56:59.619Z,19.75
2023-01-17T00:57:59.580Z,19.76
2023-01-17T00:58:59.599Z,19.75
2023-01-17T00:59:59.605Z,19.75
2023-01-17T01:00:59.615Z,19.75
2023-01-17T01:01:59.702Z,19.76
2023-01-17T01:02:59.591Z,19.76
2023-01-17T01:03:59.503Z,19.76
2023-01-17T01:04:59.500Z,19.75
2023-01-17T01:05:59.523Z,19.75
2023-01-17T01:06:59.524Z,19.76
2023-01-17T01:07:59.510Z,19.76
2023-01-17T01:08:59.515Z,19.78
2023-01-17T01:09:59.526Z,19.76
2023-01-17T01:10:59.543Z,19.76
2023-01-17T01:11:59.569Z,19.78
2023-01-17T01:12:59.535Z,19.76
2023-01-17T01:13:59.519Z,19.76
2023-01-17T01:14:59.557Z,19.76
2023-01-17T01:15:59.520Z,19.78
2023-01-17T01:16:59.536Z,19.76
2023-01-17T01:17:59.529Z,19.78
2023-01-17T01:18:59.514Z,19.78
2023-01-17T01:19:59.525Z,19.78
2023-01-17T01:20:59.541Z,19.78
2023-01-17T01:21:59.518Z,19.78
2023-01-17T01:22:59.529Z,19.78
2023-01-17T01:23:59.541Z,19.79
2023-01-17T01:24:59.513Z,19.79
2023-01-17T01:25:59.515Z,19.78
2023-01-17T01:26:59.524Z,19.78
2023-01-17T01:27:59.530Z,19.79
2023-01-17T01:28:59.530Z,19.76
2023-01-17T01:29:59.502Z,19.76
2023-01-17T01:30:59.465Z,19.79
2023-01-17T01:31:59.463Z,19.79
2023-01-17T01:32:59.471Z,19.79
2023-01-17T01:33:59.466Z,19.78
2023-01-17T01:34:59.459Z,19.79
2023-01-17T01:35:59.468Z,19.80
2023-01-17T01:36:59.479Z,19.82
2023-01-17T01:37:59.463Z,19.80
2023-01-17T01:38:59.500Z,19.79
2023-01-17T01:39:59.456Z,19.79
2023-01-17T01:40:59.435Z,19.79
2023-01-17T01:41:59.464Z,19.79
2023-01-17T01:42:59.490Z,19.79
2023-01-17T01:43:59.466Z,19.79
2023-01-17T01:44:59.668Z,19.79
2023-01-17T01:45:59.501Z,19.79
2023-01-17T01:46:59.427Z,19.79
2023-01-17T01:47:59.398Z,19.78
2023-01-17T01:48:59.448Z,19.80
2023-01-17T01:49:59.394Z,19.79
2023-01-17T01:50:59.397Z,19.79
2023-01-17T01:51:59.398Z,19.80
2023-01-17T01:52:59.407Z,19.79
2023-01-17T01:53:59.406Z,19.80
2023-01-17T01:54:59.435Z,19.79
2023-01-17T01:55:59.423Z,19.79
2023-01-17T01:56:59.426Z,19.80
2023-01-17T01:57:59.466Z,19.80
2023-01-17T01:58:59.425Z,19.80
2023-01-17T01:59:59.412Z,19.79
2023-01-17T02:00:59.594Z,19.79
2023-01-17T02:01:59.371Z,19.80
2023-01-17T02:02:59.400Z,19.80
2023-01-17T02:03:59.404Z,19.82
2023-01-17T02:04:59.348Z,19.82
2023-01-17T02:05:59.357Z,19.80
2023-01-17T02:06:59.363Z,19.82
2023-01-17T02:07:59.371Z,19.82
2023-01-17T02:08:59.409Z,19.82
2023-01-17T02:09:59.391Z,19.82
2023-01-17T02:10:59.384Z,19.82
2023-01-17T02:11:59.393Z,19.82
2023-01-17T02:12:59.370Z,19.80
2023-01-17T02:13:59.378Z,19.82
2023-01-17T02:14:59.421Z,19.82
2023-01-17T02:15:59.386Z,19.82
2023-01-17T02:16:59.385Z,19.82
2023-01-17T02:17:59.379Z,19.83
2023-01-17T02:18:59.440Z,19.82
2023-01-17T02:19:59.382Z,19.83
2023-01-17T02:20:59.379Z,19.82
2023-01-17T02:21:59.326Z,19.82
2023-01-17T02:22:59.375Z,19.83
2023-01-17T02:23:59.333Z,19.82
2023-01-17T02:24:59.324Z,19.83
2023-01-17T02:25:59.352Z,19.83
2023-01-17T02:26:59.372Z,19.83
2023-01-17T02:27:59.334Z,19.83
2023-01-17T02:28:59.340Z,19.83
2023-01-17T02:29:59.302Z,19.83
2023-01-17T02:30:59.266Z,19.83
2023-01-17T02:31:59.270Z,19.82
2023-01-17T02:32:59.243Z,19.83
2023-01-17T02:33:59.239Z,19.83
2023-01-17T02:34:59.225Z,19.83
2023-01-17T02:35:59.240Z,19.85
2023-01-17T02:36:59.240Z,19.86
2023-01-17T02:37:59.239Z,19.83
2023-01-17T02:38:59.229Z,19.85
2023-01-17T02:39:59.219Z,19.85
2023-01-17T02:40:59.169Z,19.85
2023-01-17T02:41:59.251Z,19.85
2023-01-17T02:42:59.223Z,19.85
2023-01-17T02:43:59.186Z,19.86
2023-01-17T02:44:59.222Z,19.85
2023-01-17T02:45:59.228Z,19.83
2023-01-17T02:46:59.149Z,19.86
2023-01-17T02:47:59.094Z,19.83
2023-01-17T02:48:59.105Z,19.85
2023-01-17T02:49:59.081Z,19.85
2023-01-17T02:50:59.114Z,19.85
2023-01-17T02:51:59.062Z,19.83
2023-01-17T02:52:59.090Z,19.85
2023-01-17T02:53:59.064Z,19.86
2023-01-17T02:54:59.119Z,19.86
2023-01-17T02:55:59.094Z,19.86
2023-01-17T02:56:59.216Z,19.86
2023-01-17T02:57:59.131Z,19.86
2023-01-17T02:58:59.153Z,19.87
2023-01-17T02:59:59.162Z,19.85
2023-01-17T03:00:59.259Z,19.86
2023-01-17T03:01:59.331Z,19.86
2023-01-17T03:02:59.131Z,19.85
2023-01-17T03:03:59.109Z,19.86
2023-01-17T03:04:59.126Z,19.87
2023-01-17T03:05:59.068Z,19.87
2023-01-17T03:06:59.109Z,19.86
2023-01-17T03:07:59.085Z,19.87
2023-01-17T03:08:59.091Z,19.87
2023-01-17T03:09:59.071Z,19.87
2023-01-17T03:10:59.099Z,19.89
2023-01-17T03:11:59.103Z,19.87
2023-01-17T03:12:59.097Z,19.86
2023-01-17T03:13:59.114Z,19.87
2023-01-17T03:14:59.170Z,19.89
2023-01-17T03:15:59.137Z,19.87
2023-01-17T03:16:59.082Z,19.86
2023-01-17T03:17:59.124Z,19.87
2023-01-17T03:18:59.053Z,19.87
2023-01-17T03:19:59.054Z,19.89
2023-01-17T03:20:59.010Z,19.89
2023-01-17T03:21:59.007Z,19.89
2023-01-17T03:22:59.009Z,19.89
2023-01-17T03:23:59.023Z,19.87
2023-01-17T03:24:59.073Z,19.89
2023-01-17T03:25:59.105Z,19.90
2023-01-17T03:26:59.084Z,19.89
2023-01-17T03:27:59.105Z,19.90
2023-01-17T03:28:59.109Z,19.89
2023-01-17T03:29:59.111Z,19.89
2023-01-17T03:30:59.111Z,19.90
2023-01-17T03:31:59.047Z,19.89
2023-01-17T03:32:59.480Z,19.89
2023-01-17T03:33:59.036Z,19.90
2023-01-17T03:34:59.057Z,19.89
2023-01-17T03:35:59.015Z,19.90
2023-01-17T03:36:59.027Z,19.92
2023-01-17T03:37:59.045Z,19.92
2023-01-17T03:38:59.075Z,19.90
2023-01-17T03:39:58.996Z,19.92
2023-01-17T03:40:59.029Z,19.92
2023-01-17T03:41:59.031Z,19.92
2023-01-17T03:42:59.060Z,19.94
2023-01-17T03:43:59.054Z,19.92
2023-01-17T03:44:59.020Z,19.92
2023-01-17T03:45:59.085Z,19.90
2023-01-17T03:46:59.017Z,19.92
2023-01-17T03:47:59.001Z,19.94
2023-01-17T03:48:58.962Z,19.94
2023-01-17T03:49:58.958Z,19.92
2023-01-17T03:50:58.962Z,19.92
2023-01-17T03:51:58.932Z,19.94
2023-01-17T03:52:58.914Z,19.95
2023-01-17T03:53:58.918Z,19.94
2023-01-17T03:54:58.872Z,19.94
2023-01-17T03:55:58.867Z,19.94
2023-01-17T03:56:58.949Z,19.94
2023-01-17T03:57:58.976Z,19.94
2023-01-17T03:58:58.954Z,19.95
2023-01-17T03:59:58.956Z,19.95
2023-01-17T04:00:59.017Z,19.95
2023-01-17T04:01:58.970Z,19.95
2023-01-17T04:02:58.898Z,19.95
2023-01-17T04:03:58.847Z,19.94
2023-01-17T04:04:58.843Z,19.95
2023-01-17T04:05:58.832Z,19.95
2023-01-17T04:06:58.874Z,19.95
2023-01-17T04:07:58.908Z,19.95
2023-01-17T04:08:58.912Z,19.97
2023-01-17T04:09:58.854Z,19.97
2023-01-17T04:10:58.902Z,19.95
2023-01-17T04:11:58.904Z,19.97
2023-01-17T04:12:58.919Z,19.98
2023-01-17T04:13:58.997Z,19.98
2023-01-17T04:14:58.939Z,19.97
2023-01-17T04:15:58.931Z,19.97
2023-01-17T04:16:58.925Z,19.95
2023-01-17T04:17:58.863Z,19.97
2023-01-17T04:18:58.851Z,19.95
2023-01-17T04:19:58.834Z,19.97
2023-01-17T04:20:58.871Z,19.95
2023-01-17T04:21:58.825Z,19.97
2023-01-17T04:22:58.813Z,19.98
2023-01-17T04:23:58.862Z,19.98
2023-01-17T04:24:58.845Z,19.98
2023-01-17T04:25:58.853Z,19.97
2023-01-17T04:26:58.812Z,19.98
2023-01-17T04:27:58.784Z,19.97
2023-01-17T04:28:58.825Z,19.97
2023-01-17T04:29:58.840Z,19.97
2023-01-17T04:30:58.858Z,19.98
2023-01-17T04:31:58.777Z,19.98
2023-01-17T04:32:58.756Z,19.98
2023-01-17T04:33:58.741Z,19.97
2023-01-17T04:34:58.736Z,19.95
2023-01-17T04:35:58.744Z,19.97
2023-01-17T04:36:58.760Z,19.97
2023-01-17T04:37:58.756Z,19.97
2023-01-17T04:38:58.764Z,19.97
2023-01-17T04:39:58.749Z,19.97
2023-01-17T04:40:58.764Z,19.98
2023-01-17T04:41:58.759Z,19.97
2023-01-17T04:42:58.803Z,19.98
2023-01-17T04:43:58.777Z,19.98
2023-01-17T04:44:58.757Z,19.97
2023-01-17T04:45:58.858Z,19.98
2023-01-17T04:46:58.771Z,19.97
2023-01-17T04:47:58.768Z,19.98
2023-01-17T04:48:58.737Z,19.97
2023-01-17T04:49:58.734Z,20.00
2023-01-17T04:50:58.726Z,19.98
2023-01-17T04:51:58.710Z,19.98
2023-01-17T04:52:58.720Z,20.00
2023-01-17T04:53:58.702Z,19.98
2023-01-17T04:54:58.688Z,20.00
2023-01-17T04:55:58.717Z,20.01
2023-01-17T04:56:58.697Z,19.98
2023-01-17T04:57:58.729Z,20.00
2023-01-17T04:58:58.676Z,20.00
2023-01-17T04:59:58.656Z,20.00
2023-01-17T05:00:58.731Z,20.00
2023-01-17T05:01:58.736Z,20.00
2023-01-17T05:02:58.704Z,20.00
2023-01-17T05:03:58.665Z,20.00
2023-01-17T05:04:58.654Z,20.00
2023-01-17T05:05:58.635Z,20.00
2023-01-17T05:06:58.651Z,20.01
2023-01-17T05:07:58.625Z,20.01
2023-01-17T05:08:58.648Z,20.01
2023-01-17T05:09:58.623Z,20.01
2023-01-17T05:10:58.630Z,20.02
2023-01-17T05:11:58.616Z,20.01
2023-01-17T05:12:58.622Z,20.01
2023-01-17T05:13:58.612Z,20.00
2023-01-17T05:14:58.626Z,20.00
2023-01-17T05:15:58.696Z,20.00
2023-01-17T05:16:58.615Z,20.01
2023-01-17T05:17:58.624Z,20.01
2023-01-17T05:18:58.633Z,20.01
2023-01-17T05:19:58.579Z,20.00
2023-01-17T05:20:58.621Z,20.01
2023-01-17T05:21:58.608Z,20.01
2023-01-17T05:22:58.619Z,20.01
2023-01-17T05:23:58.580Z,20.02
2023-01-17T05:24:58.561Z,20.02
2023-01-17T05:25:58.589Z,20.01
2023-01-17T05:26:58.567Z,20.02
2023-01-17T05:27:58.586Z,20.02
2023-01-17T05:28:58.540Z,20.02
2023-01-17T05:29:58.549Z,20.02
2023-01-17T05:30:58.605Z,20.01
2023-01-17T05:31:58.554Z,20.02
2023-01-17T05:32:58.573Z,20.01
2023-01-17T05:33:58.555Z,20.02
2023-01-17T05:34:58.534Z,20.02
2023-01-17T05:35:58.557Z,20.01
2023-01-17T05:36:58.562Z,20.02
2023-01-17T05:37:58.550Z,20.02
2023-01-17T05:38:58.553Z,20.04
2023-01-17T05:39:58.547Z,20.04
2023-01-17T05:40:58.523Z,20.04
2023-01-17T05:41:58.527Z,20.04
2023-01-17T05:42:58.542Z,20.02
2023-01-17T05:43:58.510Z,20.02
2023-01-17T05:44:58.550Z,20.02
2023-01-17T05:45:58.560Z,20.02
2023-01-17T05:46:58.487Z,20.02
2023-01-17T05:47:58.523Z,20.02
2023-01-17T05:48:58.529Z,20.02
2023-01-17T05:49:58.503Z,20.02
2023-01-17T05:50:58.502Z,20.02
2023-01-17T05:51:58.464Z,20.02
2023-01-17T05:52:58.458Z,20.04
2023-01-17T05:53:58.475Z,20.04
2023-01-17T05:54:58.488Z,20.04
2023-01-17T05:55:58.425Z,20.05
2023-01-17T05:56:58.431Z,20.04
2023-01-17T05:57:58.428Z,20.04
2023-01-17T05:58:58.435Z,20.04
2023-01-17T05:59:58.411Z,20.05
2023-01-17T06:00:58.473Z,20.02
2023-01-17T06:01:58.410Z,20.04
2023-01-17T06:02:58.519Z,20.04
2023-01-17T06:03:58.390Z,20.04
2023-01-17T06:04:58.376Z,20.04
2023-01-17T06:05:58.373Z,20.04
2023-01-17T06:06:58.349Z,20.04
2023-01-17T06:07:58.352Z,20.05
2023-01-17T06:08:58.336Z,20.05
2023-01-17T06:09:58.345Z,20.05
2023-01-17T06:10:58.301Z,20.05
2023-01-17T06:11:58.302Z,20.05
2023-01-17T06:12:58.304Z,20.04
2023-01-17T06:13:58.303Z,20.05
2023-01-17T06:14:58.333Z,20.05
2023-01-17T06:15:58.344Z,20.04
2023-01-17T06:16:58.272Z,20.05
2023-01-17T06:17:58.276Z,20.05
2023-01-17T06:18:58.283Z,20.04
2023-01-17T06:19:58.293Z,20.04
2023-01-17T06:20:58.277Z,20.05
2023-01-17T06:21:58.255Z,20.05
2023-01-17T06:22:58.242Z,20.05
2023-01-17T06:23:58.212Z,20.05
2023-01-17T06:24:58.256Z,20.05
2023-01-17T06:25:58.219Z,20.05
2023-01-17T06:26:58.223Z,20.05
2023-01-17T06:27:58.207Z,20.07
2023-01-17T06:28:58.197Z,20.05
2023-01-17T06:29:58.212Z,20.05
2023-01-17T06:30:58.233Z,20.04
2023-01-17T06:32:00.276Z,20.05
2023-01-17T06:32:58.244Z,20.05
2023-01-17T06:33:58.174Z,20.07
2023-01-17T06:34:58.151Z,20.05
2023-01-17T06:35:58.147Z,20.05
2023-01-17T06:36:58.115Z,20.07
2023-01-17T06:37:58.123Z,20.07
2023-01-17T06:38:58.118Z,20.07
2023-01-17T06:39:58.110Z,20.08
2023-01-17T06:40:58.093Z,20.07
2023-01-17T06:41:58.101Z,20.08
2023-01-17T06:42:58.081Z,20.08
2023-01-17T06:43:58.137Z,20.08
2023-01-17T06:44:58.062Z,20.07
2023-01-17T06:45:58.034Z,20.07
2023-01-17T06:46:58.044Z,20.07
2023-01-17T06:47:58.034Z,20.07
2023-01-17T06:48:58.018Z,20.08
2023-01-17T06:49:58.015Z,20.08
2023-01-17T06:50:58.043Z,20.08
2023-01-17T06:51:58.012Z,20.08
2023-01-17T06:52:58.099Z,20.08
2023-01-17T06:53:58.001Z,20.07
2023-01-17T06:54:58.011Z,20.08
2023-01-17T06:55:58.010Z,20.05
2023-01-17T06:56:57.989Z,20.08
2023-01-17T06:57:57.977Z,20.07
2023-01-17T06:58:58.004Z,20.07
2023-01-17T06:59:57.977Z,20.05
2023-01-17T07:00:58.123Z,20.07
2023-01-17T07:01:57.981Z,20.07
2023-01-17T07:02:58.033Z,20.05
2023-01-17T07:03:58.096Z,20.07
2023-01-17T07:04:58.004Z,20.07
2023-01-17T07:05:57.985Z,20.07
2023-01-17T07:06:57.970Z,20.07
2023-01-17T07:07:57.940Z,20.05
2023-01-17T07:08:57.950Z,20.07
2023-01-17T07:09:57.933Z,20.07
2023-01-17T07:10:57.939Z,20.07
2023-01-17T07:11:57.947Z,20.07
2023-01-17T07:12:57.940Z,20.08
2023-01-17T07:13:57.920Z,20.08
2023-01-17T07:14:57.933Z,20.07
2023-01-17T07:15:57.925Z,20.07
2023-01-17T07:16:57.907Z,20.08
2023-01-17T07:17:57.884Z,20.08
2023-01-17T07:18:57.890Z,20.07
2023-01-17T07:19:57.897Z,20.08
2023-01-17T07:20:57.869Z,20.07
2023-01-17T07:21:57.873Z,20.08
2023-01-17T07:22:57.819Z,20.08
2023-01-17T07:23:57.821Z,20.08
2023-01-17T07:24:57.793Z,20.12
2023-01-17T07:25:57.847Z,20.10
2023-01-17T07:26:57.811Z,20.12
2023-01-17T07:27:57.981Z,20.12
2023-01-17T07:28:57.755Z,20.12
2023-01-17T07:29:57.739Z,20.12
2023-01-17T07:30:57.716Z,20.13
2023-01-17T07:31:57.685Z,20.13
2023-01-17T07:32:57.739Z,20.12
2023-01-17T07:33:57.720Z,20.12
2023-01-17T07:34:57.774Z,20.12
2023-01-17T07:35:57.712Z,20.12
2023-01-17T07:36:57.655Z,20.13
2023-01-17T07:37:57.646Z,20.13
2023-01-17T07:38:57.648Z,20.13
2023-01-17T07:39:57.642Z,20.15
2023-01-17T07:40:57.636Z,20.13
2023-01-17T07:41:57.615Z,20.15
2023-01-17T07:42:57.640Z,20.13
2023-01-17T07:43:57.596Z,20.13
2023-01-17T07:44:57.611Z,20.13
2023-01-17T07:45:57.573Z,20.15
2023-01-17T07:46:57.568Z,20.13
2023-01-17T07:47:57.581Z,20.15
2023-01-17T07:48:57.552Z,20.16
2023-01-17T07:49:57.527Z,20.15
2023-01-17T07:50:57.564Z,20.16
2023-01-17T07:51:57.587Z,20.17
2023-01-17T07:52:57.571Z,20.20
2023-01-17T07:53:57.581Z,20.22
2023-01-17T07:54:57.581Z,20.27
2023-01-17T07:55:57.488Z,20.31
2023-01-17T07:56:57.493Z,20.40
2023-01-17T07:57:57.484Z,20.44
2023-01-17T07:58:57.374Z,20.48
2023-01-17T07:59:57.387Z,20.50
2023-01-17T08:00:57.500Z,20.51
2023-01-17T08:01:57.585Z,20.51
2023-01-17T08:02:57.437Z,20.53
2023-01-17T08:03:57.391Z,20.51
2023-01-17T08:04:57.330Z,20.53
2023-01-17T08:05:57.435Z,20.60
2023-01-17T08:06:58.164Z,20.42
2023-01-17T08:07:59.235Z,19.87
2023-01-17T08:08:59.298Z,19.75
2023-01-17T08:09:59.374Z,19.62
2023-01-17T08:10:59.211Z,19.68
2023-01-17T08:11:59.829Z,19.61
2023-01-17T08:12:59.810Z,19.49
2023-01-17T08:14:00.002Z,19.43
2023-01-17T08:15:29.032Z,19.43
2023-01-17T08:16:29.445Z,19.49
2023-01-17T08:17:29.569Z,19.47
2023-01-17T08:18:29.121Z,19.61
2023-01-17T08:19:29.963Z,19.32
2023-01-17T08:20:31.586Z,17.92
2023-01-17T08:21:34.035Z,16.07
2023-01-17T08:22:37.251Z,14.64
2023-01-17T08:23:38.618Z,13.53
2023-01-17T08:24:38.048Z,13.81
2023-01-17T08:25:36.808Z,14.74
2023-01-17T08:26:37.538Z,14.02
2023-01-17T08:27:36.269Z,15.04
2023-01-17T08:28:33.249Z,16.26
2023-01-17T08:29:32.141Z,17.27
2023-01-17T08:30:31.205Z,18.01
2023-01-17T08:31:30.625Z,18.46
2023-01-17T08:32:30.073Z,18.78
2023-01-17T08:33:29.653Z,19.05
2023-01-17T08:34:29.319Z,19.24
2023-01-17T08:35:29.048Z,19.39
2023-01-17T08:36:28.930Z,19.52
2023-01-17T08:37:28.686Z,19.67
2023-01-17T08:38:28.527Z,19.78
2023-01-17T08:39:28.415Z,19.83
2023-01-17T08:40:28.228Z,19.87
2023-01-17T08:41:28.046Z,20.02
2023-01-17T08:42:27.956Z,20.16
2023-01-17T08:43:27.877Z,20.20
2023-01-17T08:44:27.803Z,20.23
2023-01-17T08:45:27.730Z,20.27
2023-01-17T08:46:27.502Z,20.34
2023-01-17T08:47:27.337Z,20.41
2023-01-17T08:48:27.282Z,20.57
2023-01-17T08:49:27.242Z,20.64
2023-01-17T08:50:27.179Z,20.75
2023-01-17T08:51:27.040Z,20.87
2023-01-17T08:52:26.995Z,20.98
2023-01-17T08:53:26.843Z,21.06
2023-01-17T08:54:26.747Z,21.15
2023-01-17T08:55:26.673Z,21.09
2023-01-17T08:56:26.677Z,21.05
2023-01-17T08:57:26.544Z,21.05
2023-01-17T08:58:26.366Z,21.12
2023-01-17T08:59:26.155Z,21.13
2023-01-17T09:00:26.169Z,21.11
2023-01-17T09:01:26.417Z,21.08
2023-01-17T09:02:26.083Z,21.08
2023-01-17T09:03:26.040Z,21.08
2023-01-17T09:04:25.952Z,21.09
2023-01-17T09:05:25.684Z,21.08
2023-01-17T09:06:25.592Z,21.09
2023-01-17T09:07:25.515Z,21.13
2023-01-17T09:08:25.456Z,21.16
2023-01-17T09:09:25.359Z,21.16
2023-01-17T09:10:25.315Z,21.16
2023-01-17T09:11:25.362Z,21.21
2023-01-17T09:12:25.371Z,21.16
2023-01-17T09:13:25.227Z,21.15
2023-01-17T09:14:25.241Z,21.15
2023-01-17T09:15:25.271Z,21.16
2023-01-17T09:16:25.171Z,21.18
2023-01-17T09:17:24.961Z,21.18
2023-01-17T09:18:25.195Z,21.21
2023-01-17T09:19:25.701Z,21.21
2023-01-17T09:20:25.781Z,21.27
2023-01-17T09:21:25.682Z,21.31
2023-01-17T09:22:25.616Z,21.31
2023-01-17T09:23:25.611Z,21.34
2023-01-17T09:24:25.721Z,21.31
2023-01-17T09:25:25.576Z,21.36
2023-01-17T09:26:25.463Z,21.34
2023-01-17T09:27:25.319Z,21.31
2023-01-17T09:28:25.191Z,21.33
2023-01-17T09:29:25.083Z,21.34
2023-01-17T09:30:24.990Z,21.38
2023-01-17T09:31:24.846Z,21.40
2023-01-17T09:32:24.780Z,21.37
2023-01-17T09:33:24.675Z,21.33
2023-01-17T09:34:24.632Z,21.27
2023-01-17T09:35:24.588Z,21.19
2023-01-17T09:36:24.546Z,21.16
2023-01-17T09:37:24.527Z,21.12
2023-01-17T09:38:24.500Z,21.09
2023-01-17T09:39:24.427Z,21.08
2023-01-17T09:40:24.349Z,21.05
2023-01-17T09:41:24.297Z,21.03
2023-01-17T09:42:24.213Z,21.11
2023-01-17T09:43:24.152Z,21.13
2023-01-17T09:44:24.132Z,21.08
2023-01-17T09:45:24.091Z,21.03
2023-01-17T09:46:24.004Z,21.01
2023-01-17T09:47:24.055Z,21.01
2023-01-17T09:48:23.931Z,21.00
2023-01-17T09:49:23.928Z,20.97
2023-01-17T09:50:23.878Z,20.97
2023-01-17T09:51:23.807Z,20.94
2023-01-17T09:52:23.760Z,20.93
2023-01-17T09:53:23.747Z,20.91
2023-01-17T09:54:23.745Z,20.88
2023-01-17T09:55:23.666Z,20.83
2023-01-17T09:56:23.740Z,20.82
2023-01-17T09:57:23.679Z,20.82
2023-01-17T09:58:23.708Z,20.82
2023-01-17T09:59:32.208Z,20.82
2023-01-17T10:00:23.681Z,20.83
2023-01-17T10:01:23.840Z,20.85
2023-01-17T10:02:26.242Z,20.87
2023-01-17T10:03:23.611Z,20.87
2023-01-17T10:04:23.460Z,20.87
2023-01-17T10:05:23.358Z,20.85
2023-01-17T10:06:23.269Z,20.83
2023-01-17T10:07:23.175Z,20.82
2023-01-17T10:08:23.154Z,20.79
2023-01-17T10:09:23.087Z,20.78
2023-01-17T10:10:22.988Z,20.76
2023-01-17T10:11:22.966Z,20.75
2023-01-17T10:12:22.891Z,20.75
2023-01-17T10:13:22.887Z,20.71
2023-01-17T10:14:22.834Z,20.69
2023-01-17T10:15:22.759Z,20.66
2023-01-17T10:16:22.745Z,20.66
2023-01-17T10:17:22.652Z,20.66
2023-01-17T10:18:29.863Z,20.69
2023-01-17T10:19:22.652Z,20.75
2023-01-17T10:20:22.537Z,20.76
2023-01-17T10:21:22.479Z,20.78
2023-01-17T10:22:22.379Z,20.81
2023-01-17T10:23:22.337Z,20.82
2023-01-17T10:24:22.260Z,20.88
2023-01-17T10:25:22.147Z,20.94
2023-01-17T10:26:22.129Z,21.00
2023-01-17T10:27:22.031Z,21.08
2023-01-17T10:28:21.907Z,21.13
2023-01-17T10:29:21.740Z,21.63
2023-01-17T10:30:21.623Z,21.85
2023-01-17T10:31:21.834Z,21.70
2023-01-17T10:32:21.482Z,21.59
2023-01-17T10:33:21.454Z,21.51
2023-01-17T10:34:21.277Z,21.77
2023-01-17T10:35:21.135Z,22.52
2023-01-17T10:36:21.116Z,22.42
2023-01-17T10:37:20.994Z,22.38
2023-01-17T10:38:20.863Z,22.52
2023-01-17T10:39:20.813Z,22.56
2023-01-17T10:40:20.762Z,22.21
2023-01-17T10:41:20.781Z,21.94
2023-01-17T10:42:20.804Z,21.70
2023-01-17T10:43:20.841Z,21.56
2023-01-17T10:44:20.828Z,21.48
2023-01-17T10:45:20.723Z,21.45
2023-01-17T10:46:20.720Z,21.43
2023-01-17T10:47:20.568Z,21.52
2023-01-17T10:48:23.138Z,21.56
2023-01-17T10:49:20.562Z,21.48
2023-01-17T10:50:20.497Z,21.48
2023-01-17T10:51:20.464Z,21.45
2023-01-17T10:52:20.410Z,21.43
2023-01-17T10:53:20.386Z,21.43
2023-01-17T10:54:20.369Z,21.42
2023-01-17T10:55:20.269Z,21.43
2023-01-17T10:56:20.192Z,21.53
2023-01-17T10:57:20.060Z,22.49
2023-01-17T10:58:19.945Z,22.66
2023-01-17T10:59:19.828Z,22.93
2023-01-17T11:00:20.659Z,22.91
2023-01-17T11:01:19.862Z,22.51
2023-01-17T11:02:19.829Z,22.51
2023-01-17T11:03:19.622Z,22.23
2023-01-17T11:04:19.601Z,22.11
2023-01-17T11:05:19.534Z,22.11
2023-01-17T11:06:19.362Z,22.59
2023-01-17T11:07:19.264Z,23.23
2023-01-17T11:08:19.080Z,24.04
2023-01-17T11:09:18.946Z,24.09
2023-01-17T11:10:18.921Z,23.67
2023-01-17T11:11:18.903Z,23.34
2023-01-17T11:12:18.912Z,23.06
2023-01-17T11:13:18.963Z,22.64
2023-01-17T11:14:19.024Z,22.27
2023-01-17T11:15:19.069Z,21.96
2023-01-17T11:16:19.188Z,21.75
2023-01-17T11:17:19.099Z,21.68
2023-01-17T11:18:19.039Z,21.63
2023-01-17T11:19:19.021Z,21.58
2023-01-17T11:20:18.955Z,21.58
2023-01-17T11:21:18.865Z,21.61
2023-01-17T11:22:18.756Z,21.64
2023-01-17T11:23:18.721Z,21.63
2023-01-17T11:24:18.630Z,21.83
2023-01-17T11:25:18.536Z,22.01
2023-01-17T11:26:18.482Z,22.06
2023-01-17T11:27:18.341Z,22.60
2023-01-17T11:28:18.256Z,22.48
2023-01-17T11:29:18.131Z,23.12
2023-01-17T11:30:18.012Z,23.84
2023-01-17T11:31:18.288Z,23.86
2023-01-17T11:32:17.828Z,23.71
2023-01-17T11:33:17.815Z,23.12
2023-01-17T11:34:17.831Z,22.66
2023-01-17T11:35:17.836Z,22.35
2023-01-17T11:36:17.743Z,22.20
2023-01-17T11:37:17.651Z,22.24
2023-01-17T11:38:17.633Z,22.36
2023-01-17T11:39:17.683Z,22.27
2023-01-17T11:40:17.581Z,22.21
2023-01-17T11:41:17.559Z,22.19
2023-01-17T11:42:17.421Z,22.23
2023-01-17T11:43:17.363Z,22.27
2023-01-17T11:44:17.337Z,22.20
2023-01-17T11:45:17.282Z,22.15
2023-01-17T11:46:17.280Z,22.11
2023-01-17T11:47:17.176Z,22.08
2023-01-17T11:48:17.142Z,22.04
2023-01-17T11:49:17.062Z,22.05
2023-01-17T11:50:17.149Z,22.04
2023-01-17T11:51:16.955Z,22.08
2023-01-17T11:52:16.910Z,22.02
2023-01-17T11:53:16.866Z,21.99
2023-01-17T11:54:16.814Z,22.04
2023-01-17T11:55:16.742Z,22.05
2023-01-17T11:56:16.706Z,22.08
2023-01-17T11:57:16.684Z,22.12
2023-01-17T11:58:16.560Z,22.19
2023-01-17T11:59:16.461Z,22.24
2023-01-17T12:00:16.465Z,22.29
2023-01-17T12:01:16.328Z,22.31
2023-01-17T12:02:16.233Z,22.35
2023-01-17T12:03:16.130Z,22.46
2023-01-17T12:04:16.037Z,22.48
2023-01-17T12:05:16.009Z,22.44
2023-01-17T12:06:15.966Z,22.38
2023-01-17T12:07:15.978Z,22.30
2023-01-17T12:08:15.950Z,22.26
2023-01-17T12:09:15.944Z,22.24
2023-01-17T12:10:16.062Z,22.23
2023-01-17T12:11:16.158Z,22.26
2023-01-17T12:12:15.816Z,22.27
2023-01-17T12:13:15.707Z,22.29
2023-01-17T12:14:15.636Z,22.31
2023-01-17T12:15:15.578Z,22.27
2023-01-17T12:16:15.581Z,22.21
2023-01-17T12:17:15.457Z,22.21
2023-01-17T12:18:15.438Z,22.21
2023-01-17T12:19:15.424Z,22.17
2023-01-17T12:20:15.336Z,22.11
2023-01-17T12:21:15.325Z,22.06
2023-01-17T12:22:15.271Z,22.04
2023-01-17T12:23:15.208Z,21.99
2023-01-17T12:24:15.176Z,21.99
2023-01-17T12:25:15.183Z,22.01
2023-01-17T12:26:15.089Z,22.02
2023-01-17T12:27:14.978Z,22.04
2023-01-17T12:28:14.918Z,22.04
2023-01-17T12:29:14.856Z,22.05
2023-01-17T12:30:14.833Z,22.06
2023-01-17T12:31:14.743Z,22.08
2023-01-17T12:32:14.671Z,22.14
2023-01-17T12:33:14.538Z,22.15
2023-01-17T12:34:14.475Z,22.17
2023-01-17T12:35:14.424Z,22.21
2023-01-17T12:36:14.332Z,22.21
2023-01-17T12:37:14.276Z,22.24
2023-01-17T12:38:27.409Z,22.27
2023-01-17T12:39:14.125Z,22.31
2023-01-17T12:40:14.089Z,22.36
2023-01-17T12:41:14.030Z,22.39
2023-01-17T12:42:13.934Z,22.36
2023-01-17T12:43:13.882Z,22.31
2023-01-17T12:44:13.875Z,22.30
2023-01-17T12:45:13.785Z,22.26
2023-01-17T12:46:13.800Z,22.24
2023-01-17T12:47:13.678Z,22.20
2023-01-17T12:48:13.644Z,22.19
2023-01-17T12:49:13.592Z,22.15
2023-01-17T12:50:13.695Z,22.15
2023-01-17T12:51:13.489Z,22.14
2023-01-17T12:52:13.471Z,22.12
2023-01-17T12:53:13.410Z,22.12